Terminal Aerodrome Forecast
Issued by NWS Bismarck, ND

Home | Current Version | Previous Version | Graphics & Text | Print | Product List | Glossary On
Versions: 1 2 3 4 5 6 7 8 9 10 11 12 13 14
000
FTUS43 KBIS 212300
TAFBIS
TAF
KBIS 212332Z 2200/2224 VRB03KT P6SM SKC
     FM221400 16006KT P6SM SKC
     FM221900 16014KT P6SM SKC=

USA.gov is the U.S. government's official web portal to all federal, state and local government web resources and services.